sensor_id;sensor_type;location;lat;lon;timestamp;P1;durP1;ratioP1;P2;durP2;ratioP2
29848;SDS011;16728;50.832;5.590;2022-09-27T00:01:33;4.30;;;0.90;;
29848;SDS011;16728;50.832;5.590;2022-09-27T00:04:35;5.47;;;1.25;;
29848;SDS011;16728;50.832;5.590;2022-09-27T00:07:37;5.30;;;1.10;;
29848;SDS011;16728;50.832;5.590;2022-09-27T00:10:39;2.67;;;1.23;;
29848;SDS011;16728;50.832;5.590;2022-09-27T00:13:40;4.15;;;1.35;;
29848;SDS011;16728;50.832;5.590;2022-09-27T00:16:43;4.05;;;1.30;;
29848;SDS011;16728;50.832;5.590;2022-09-27T00:19:45;7.60;;;1.48;;
29848;SDS011;16728;50.832;5.590;2022-09-27T00:22:47;4.95;;;1.48;;
29848;SDS011;16728;50.832;5.590;2022-09-27T00:25:56;5.00;;;1.60;;
29848;SDS011;16728;50.832;5.590;2022-09-27T00:28:58;3.50;;;1.20;;
29848;SDS011;16728;50.832;5.590;2022-09-27T00:32:00;6.47;;;1.73;;
29848;SDS011;16728;50.832;5.590;2022-09-27T00:35:02;3.15;;;1.55;;
29848;SDS011;16728;50.832;5.590;2022-09-27T00:38:04;3.45;;;1.58;;
29848;SDS011;16728;50.832;5.590;2022-09-27T00:41:07;5.63;;;1.70;;
29848;SDS011;16728;50.832;5.590;2022-09-27T00:47:31;4.35;;;1.50;;
29848;SDS011;16728;50.832;5.590;2022-09-27T00:50:35;3.47;;;1.40;;
29848;SDS011;16728;50.832;5.590;2022-09-27T00:53:42;3.38;;;1.35;;
29848;SDS011;16728;50.832;5.590;2022-09-27T00:56:51;3.17;;;1.30;;
29848;SDS011;16728;50.832;5.590;2022-09-27T00:59:59;4.10;;;1.42;;
29848;SDS011;16728;50.832;5.590;2022-09-27T01:03:11;4.80;;;1.63;;
29848;SDS011;16728;50.832;5.590;2022-09-27T01:06:16;6.65;;;2.25;;
29848;SDS011;16728;50.832;5.590;2022-09-27T01:09:21;5.45;;;1.63;;
29848;SDS011;16728;50.832;5.590;2022-09-27T01:19:08;5.45;;;1.70;;
29848;SDS011;16728;50.832;5.590;2022-09-27T01:39:31;2.78;;;0.90;;
29848;SDS011;16728;50.832;5.590;2022-09-27T01:42:49;2.15;;;0.70;;
29848;SDS011;16728;50.832;5.590;2022-09-27T01:46:16;2.28;;;0.75;;
29848;SDS011;16728;50.832;5.590;2022-09-27T01:50:03;2.17;;;0.90;;
29848;SDS011;16728;50.832;5.590;2022-09-27T01:53:09;2.65;;;0.80;;
29848;SDS011;16728;50.832;5.590;2022-09-27T01:56:18;2.15;;;0.60;;
29848;SDS011;16728;50.832;5.590;2022-09-27T02:02:57;2.50;;;0.70;;
29848;SDS011;16728;50.832;5.590;2022-09-27T02:06:09;3.33;;;0.90;;
29848;SDS011;16728;50.832;5.590;2022-09-27T02:09:25;3.08;;;0.70;;
29848;SDS011;16728;50.832;5.590;2022-09-27T02:12:34;4.53;;;0.90;;
29848;SDS011;16728;50.832;5.590;2022-09-27T02:22:19;3.10;;;1.02;;
29848;SDS011;16728;50.832;5.590;2022-09-27T02:29:08;1.60;;;0.60;;
29848;SDS011;16728;50.832;5.590;2022-09-27T02:32:18;1.88;;;0.70;;
29848;SDS011;16728;50.832;5.590;2022-09-27T02:35:27;2.15;;;0.50;;
29848;SDS011;16728;50.832;5.590;2022-09-27T02:38:34;2.03;;;0.85;;
29848;SDS011;16728;50.832;5.590;2022-09-27T02:41:35;1.10;;;0.80;;
29848;SDS011;16728;50.832;5.590;2022-09-27T02:44:37;3.05;;;1.00;;
29848;SDS011;16728;50.832;5.590;2022-09-27T02:47:56;2.03;;;1.00;;
29848;SDS011;16728;50.832;5.590;2022-09-27T03:05:00;3.75;;;1.17;;
29848;SDS011;16728;50.832;5.590;2022-09-27T03:08:06;3.30;;;1.10;;
29848;SDS011;16728;50.832;5.590;2022-09-27T03:11:08;4.53;;;1.40;;
29848;SDS011;16728;50.832;5.590;2022-09-27T03:14:10;1.52;;;0.95;;
29848;SDS011;16728;50.832;5.590;2022-09-27T03:17:12;3.05;;;1.20;;
29848;SDS011;16728;50.832;5.590;2022-09-27T03:20:14;2.40;;;0.77;;
29848;SDS011;16728;50.832;5.590;2022-09-27T03:23:16;4.75;;;0.98;;
29848;SDS011;16728;50.832;5.590;2022-09-27T03:26:18;6.43;;;0.98;;
29848;SDS011;16728;50.832;5.590;2022-09-27T03:29:20;2.53;;;0.70;;
29848;SDS011;16728;50.832;5.590;2022-09-27T03:32:22;2.55;;;0.75;;
29848;SDS011;16728;50.832;5.590;2022-09-27T03:35:23;2.33;;;0.75;;
29848;SDS011;16728;50.832;5.590;2022-09-27T03:38:26;6.13;;;0.90;;
29848;SDS011;16728;50.832;5.590;2022-09-27T03:41:28;4.63;;;0.90;;
29848;SDS011;16728;50.832;5.590;2022-09-27T03:44:30;2.03;;;0.70;;
29848;SDS011;16728;50.832;5.590;2022-09-27T03:47:33;3.08;;;0.60;;
29848;SDS011;16728;50.832;5.590;2022-09-27T03:50:34;2.53;;;0.70;;
29848;SDS011;16728;50.832;5.590;2022-09-27T03:53:37;2.58;;;1.05;;
29848;SDS011;16728;50.832;5.590;2022-09-27T03:56:39;2.47;;;0.70;;
29848;SDS011;16728;50.832;5.590;2022-09-27T03:59:40;2.85;;;0.60;;
29848;SDS011;16728;50.832;5.590;2022-09-27T04:02:42;2.67;;;0.80;;
29848;SDS011;16728;50.832;5.590;2022-09-27T04:05:44;3.65;;;0.90;;
29848;SDS011;16728;50.832;5.590;2022-09-27T04:08:46;2.78;;;0.90;;
29848;SDS011;16728;50.832;5.590;2022-09-27T04:11:49;3.05;;;0.70;;
29848;SDS011;16728;50.832;5.590;2022-09-27T04:14:50;3.58;;;0.82;;
29848;SDS011;16728;50.832;5.590;2022-09-27T04:17:52;4.05;;;0.80;;
29848;SDS011;16728;50.832;5.590;2022-09-27T04:20:54;2.45;;;0.80;;
29848;SDS011;16728;50.832;5.590;2022-09-27T04:23:56;1.60;;;0.60;;
29848;SDS011;16728;50.832;5.590;2022-09-27T04:26:58;2.15;;;0.60;;
29848;SDS011;16728;50.832;5.590;2022-09-27T04:30:00;1.30;;;0.60;;
29848;SDS011;16728;50.832;5.590;2022-09-27T04:33:02;1.92;;;0.60;;
29848;SDS011;16728;50.832;5.590;2022-09-27T04:36:04;3.13;;;1.00;;
29848;SDS011;16728;50.832;5.590;2022-09-27T04:39:24;2.45;;;0.85;;
29848;SDS011;16728;50.832;5.590;2022-09-27T04:42:26;2.90;;;0.80;;
29848;SDS011;16728;50.832;5.590;2022-09-27T04:45:29;4.85;;;0.82;;
29848;SDS011;16728;50.832;5.590;2022-09-27T04:48:31;5.47;;;1.03;;
29848;SDS011;16728;50.832;5.590;2022-09-27T04:51:33;2.13;;;0.82;;
29848;SDS011;16728;50.832;5.590;2022-09-27T04:54:35;3.65;;;0.70;;
29848;SDS011;16728;50.832;5.590;2022-09-27T04:57:38;3.58;;;0.82;;
29848;SDS011;16728;50.832;5.590;2022-09-27T05:00:40;2.35;;;0.77;;
29848;SDS011;16728;50.832;5.590;2022-09-27T05:06:45;2.15;;;0.60;;
29848;SDS011;16728;50.832;5.590;2022-09-27T05:09:46;2.90;;;0.90;;
29848;SDS011;16728;50.832;5.590;2022-09-27T05:12:49;3.53;;;1.00;;
29848;SDS011;16728;50.832;5.590;2022-09-27T05:15:51;2.45;;;0.77;;
29848;SDS011;16728;50.832;5.590;2022-09-27T05:18:53;4.45;;;1.10;;
29848;SDS011;16728;50.832;5.590;2022-09-27T05:21:54;2.17;;;0.90;;
29848;SDS011;16728;50.832;5.590;2022-09-27T05:24:56;3.35;;;0.80;;
29848;SDS011;16728;50.832;5.590;2022-09-27T05:27:58;1.65;;;0.60;;
29848;SDS011;16728;50.832;5.590;2022-09-27T05:31:01;3.55;;;0.90;;
29848;SDS011;16728;50.832;5.590;2022-09-27T05:34:03;3.80;;;0.88;;
29848;SDS011;16728;50.832;5.590;2022-09-27T05:37:05;1.38;;;0.80;;
29848;SDS011;16728;50.832;5.590;2022-09-27T05:40:07;2.15;;;0.90;;
29848;SDS011;16728;50.832;5.590;2022-09-27T05:43:29;3.40;;;1.00;;
29848;SDS011;16728;50.832;5.590;2022-09-27T05:46:32;2.80;;;0.75;;
29848;SDS011;16728;50.832;5.590;2022-09-27T05:49:33;4.68;;;1.38;;
29848;SDS011;16728;50.832;5.590;2022-09-27T05:52:35;2.35;;;0.80;;
29848;SDS011;16728;50.832;5.590;2022-09-27T05:55:37;2.83;;;0.90;;
29848;SDS011;16728;50.832;5.590;2022-09-27T05:58:39;1.70;;;0.90;;
29848;SDS011;16728;50.832;5.590;2022-09-27T06:01:41;2.45;;;0.80;;
29848;SDS011;16728;50.832;5.590;2022-09-27T06:04:43;1.85;;;0.60;;
29848;SDS011;16728;50.832;5.590;2022-09-27T06:07:45;2.75;;;0.98;;
29848;SDS011;16728;50.832;5.590;2022-09-27T06:10:59;1.80;;;0.60;;
29848;SDS011;16728;50.832;5.590;2022-09-27T06:14:04;3.50;;;0.70;;
29848;SDS011;16728;50.832;5.590;2022-09-27T06:17:06;3.92;;;0.82;;
29848;SDS011;16728;50.832;5.590;2022-09-27T06:20:08;2.05;;;0.82;;
29848;SDS011;16728;50.832;5.590;2022-09-27T06:23:14;3.22;;;0.95;;
29848;SDS011;16728;50.832;5.590;2022-09-27T06:26:20;2.38;;;0.68;;
29848;SDS011;16728;50.832;5.590;2022-09-27T06:29:22;3.40;;;0.90;;
29848;SDS011;16728;50.832;5.590;2022-09-27T06:32:24;1.42;;;0.75;;
29848;SDS011;16728;50.832;5.590;2022-09-27T06:35:26;4.90;;;0.82;;
29848;SDS011;16728;50.832;5.590;2022-09-27T06:38:29;3.05;;;1.00;;
29848;SDS011;16728;50.832;5.590;2022-09-27T06:41:31;2.45;;;1.20;;
29848;SDS011;16728;50.832;5.590;2022-09-27T06:44:33;3.67;;;1.00;;
29848;SDS011;16728;50.832;5.590;2022-09-27T06:47:35;3.05;;;0.90;;
29848;SDS011;16728;50.832;5.590;2022-09-27T06:50:38;2.90;;;0.93;;
29848;SDS011;16728;50.832;5.590;2022-09-27T06:53:44;1.35;;;0.95;;
29848;SDS011;16728;50.832;5.590;2022-09-27T06:56:46;4.50;;;1.25;;
29848;SDS011;16728;50.832;5.590;2022-09-27T06:59:48;2.65;;;1.15;;
29848;SDS011;16728;50.832;5.590;2022-09-27T07:03:09;2.53;;;1.13;;
29848;SDS011;16728;50.832;5.590;2022-09-27T07:06:18;2.97;;;1.00;;
29848;SDS011;16728;50.832;5.590;2022-09-27T07:09:23;2.30;;;1.20;;
29848;SDS011;16728;50.832;5.590;2022-09-27T07:12:25;2.63;;;1.07;;
29848;SDS011;16728;50.832;5.590;2022-09-27T07:15:27;3.20;;;1.35;;
29848;SDS011;16728;50.832;5.590;2022-09-27T07:18:29;7.00;;;1.30;;
29848;SDS011;16728;50.832;5.590;2022-09-27T07:21:31;12.50;;;9.77;;
29848;SDS011;16728;50.832;5.590;2022-09-27T07:24:33;2.70;;;1.38;;
29848;SDS011;16728;50.832;5.590;2022-09-27T07:27:35;1.73;;;1.20;;
29848;SDS011;16728;50.832;5.590;2022-09-27T07:30:38;3.67;;;1.48;;
29848;SDS011;16728;50.832;5.590;2022-09-27T07:33:41;2.92;;;1.45;;
29848;SDS011;16728;50.832;5.590;2022-09-27T07:36:43;7.55;;;5.40;;
29848;SDS011;16728;50.832;5.590;2022-09-27T07:39:45;2.50;;;1.42;;
29848;SDS011;16728;50.832;5.590;2022-09-27T07:42:49;3.65;;;1.60;;
29848;SDS011;16728;50.832;5.590;2022-09-27T07:45:57;2.15;;;1.40;;
29848;SDS011;16728;50.832;5.590;2022-09-27T07:49:02;2.13;;;1.42;;
29848;SDS011;16728;50.832;5.590;2022-09-27T07:52:04;2.75;;;1.63;;
29848;SDS011;16728;50.832;5.590;2022-09-27T07:55:07;5.82;;;2.17;;
29848;SDS011;16728;50.832;5.590;2022-09-27T07:58:11;2.30;;;2.10;;
29848;SDS011;16728;50.832;5.590;2022-09-27T08:01:18;4.05;;;2.03;;
29848;SDS011;16728;50.832;5.590;2022-09-27T08:07:56;4.10;;;2.97;;
29848;SDS011;16728;50.832;5.590;2022-09-27T08:11:16;8.52;;;6.55;;
29848;SDS011;16728;50.832;5.590;2022-09-27T08:14:19;5.53;;;3.75;;
29848;SDS011;16728;50.832;5.590;2022-09-27T08:20:24;3.65;;;2.83;;
29848;SDS011;16728;50.832;5.590;2022-09-27T08:23:28;6.80;;;3.00;;
29848;SDS011;16728;50.832;5.590;2022-09-27T08:26:31;4.82;;;2.80;;
29848;SDS011;16728;50.832;5.590;2022-09-27T08:29:33;3.83;;;3.40;;
29848;SDS011;16728;50.832;5.590;2022-09-27T08:32:35;6.30;;;3.88;;
29848;SDS011;16728;50.832;5.590;2022-09-27T08:35:38;8.80;;;3.80;;
29848;SDS011;16728;50.832;5.590;2022-09-27T08:38:40;5.47;;;4.00;;
29848;SDS011;16728;50.832;5.590;2022-09-27T08:41:49;7.78;;;4.97;;
29848;SDS011;16728;50.832;5.590;2022-09-27T08:48:07;6.88;;;4.95;;
29848;SDS011;16728;50.832;5.590;2022-09-27T08:51:13;7.03;;;4.90;;
29848;SDS011;16728;50.832;5.590;2022-09-27T08:54:23;6.95;;;4.38;;
29848;SDS011;16728;50.832;5.590;2022-09-27T08:57:29;6.80;;;4.95;;
29848;SDS011;16728;50.832;5.590;2022-09-27T09:00:31;7.60;;;5.18;;
29848;SDS011;16728;50.832;5.590;2022-09-27T09:03:34;10.00;;;6.13;;
29848;SDS011;16728;50.832;5.590;2022-09-27T09:06:41;7.72;;;5.10;;
29848;SDS011;16728;50.832;5.590;2022-09-27T09:27:38;5.70;;;4.00;;
29848;SDS011;16728;50.832;5.590;2022-09-27T09:37:45;5.40;;;3.58;;
29848;SDS011;16728;50.832;5.590;2022-09-27T09:44:23;7.63;;;5.10;;
29848;SDS011;16728;50.832;5.590;2022-09-27T09:47:37;5.20;;;3.58;;
29848;SDS011;16728;50.832;5.590;2022-09-27T09:50:45;3.90;;;2.60;;
29848;SDS011;16728;50.832;5.590;2022-09-27T10:00:55;4.03;;;2.10;;
29848;SDS011;16728;50.832;5.590;2022-09-27T10:04:01;4.30;;;2.13;;
29848;SDS011;16728;50.832;5.590;2022-09-27T10:07:03;6.68;;;2.38;;
29848;SDS011;16728;50.832;5.590;2022-09-27T10:10:19;2.78;;;2.03;;
29848;SDS011;16728;50.832;5.590;2022-09-27T10:13:22;3.50;;;1.73;;
29848;SDS011;16728;50.832;5.590;2022-09-27T10:16:24;2.47;;;1.70;;
29848;SDS011;16728;50.832;5.590;2022-09-27T10:19:36;2.15;;;1.73;;
29848;SDS011;16728;50.832;5.590;2022-09-27T10:22:54;3.58;;;1.98;;
29848;SDS011;16728;50.832;5.590;2022-09-27T10:26:03;4.38;;;1.90;;
29848;SDS011;16728;50.832;5.590;2022-09-27T10:29:16;3.72;;;1.77;;
29848;SDS011;16728;50.832;5.590;2022-09-27T10:32:33;3.05;;;1.50;;
29848;SDS011;16728;50.832;5.590;2022-09-27T10:35:39;1.48;;;1.33;;
29848;SDS011;16728;50.832;5.590;2022-09-27T10:38:50;3.67;;;1.10;;
29848;SDS011;16728;50.832;5.590;2022-09-27T10:41:54;2.20;;;1.15;;
29848;SDS011;16728;50.832;5.590;2022-09-27T10:44:57;2.55;;;1.10;;
29848;SDS011;16728;50.832;5.590;2022-09-27T10:48:00;1.60;;;1.30;;
29848;SDS011;16728;50.832;5.590;2022-09-27T10:54:15;2.00;;;1.10;;
29848;SDS011;16728;50.832;5.590;2022-09-27T10:57:32;1.92;;;1.10;;
29848;SDS011;16728;50.832;5.590;2022-09-27T11:00:35;4.90;;;1.80;;
29848;SDS011;16728;50.832;5.590;2022-09-27T11:03:44;2.10;;;1.00;;
29848;SDS011;16728;50.832;5.590;2022-09-27T11:06:51;6.57;;;3.63;;
29848;SDS011;16728;50.832;5.590;2022-09-27T11:10:20;3.30;;;1.38;;
29848;SDS011;16728;50.832;5.590;2022-09-27T11:13:37;2.65;;;1.20;;
29848;SDS011;16728;50.832;5.590;2022-09-27T11:26:33;1.25;;;1.10;;
29848;SDS011;16728;50.832;5.590;2022-09-27T11:42:31;2.47;;;0.85;;
29848;SDS011;16728;50.832;5.590;2022-09-27T11:45:54;3.42;;;1.10;;
29848;SDS011;16728;50.832;5.590;2022-09-27T11:49:40;2.63;;;0.88;;
29848;SDS011;16728;50.832;5.590;2022-09-27T11:56:10;1.60;;;1.00;;
29848;SDS011;16728;50.832;5.590;2022-09-27T12:00:04;3.47;;;1.67;;
29848;SDS011;16728;50.832;5.590;2022-09-27T12:09:36;4.38;;;1.48;;
29848;SDS011;16728;50.832;5.590;2022-09-27T12:12:42;4.22;;;1.60;;
29848;SDS011;16728;50.832;5.590;2022-09-27T12:15:46;3.65;;;1.60;;
29848;SDS011;16728;50.832;5.590;2022-09-27T12:18:49;3.55;;;1.52;;
29848;SDS011;16728;50.832;5.590;2022-09-27T12:22:13;7.03;;;1.60;;
29848;SDS011;16728;50.832;5.590;2022-09-27T12:25:35;7.57;;;1.83;;
29848;SDS011;16728;50.832;5.590;2022-09-27T12:28:50;5.05;;;1.90;;
29848;SDS011;16728;50.832;5.590;2022-09-27T12:32:11;5.10;;;2.42;;
29848;SDS011;16728;50.832;5.590;2022-09-27T12:35:30;7.43;;;2.35;;
29848;SDS011;16728;50.832;5.590;2022-09-27T12:41:59;7.57;;;1.67;;
29848;SDS011;16728;50.832;5.590;2022-09-27T12:45:09;5.22;;;1.83;;
29848;SDS011;16728;50.832;5.590;2022-09-27T12:51:35;11.10;;;1.70;;
29848;SDS011;16728;50.832;5.590;2022-09-27T12:58:23;6.78;;;1.63;;
29848;SDS011;16728;50.832;5.590;2022-09-27T13:11:41;2.60;;;0.80;;
29848;SDS011;16728;50.832;5.590;2022-09-27T13:18:00;3.13;;;1.92;;
29848;SDS011;16728;50.832;5.590;2022-09-27T13:21:06;2.13;;;1.10;;
29848;SDS011;16728;50.832;5.590;2022-09-27T13:27:42;2.65;;;1.00;;
29848;SDS011;16728;50.832;5.590;2022-09-27T13:30:50;3.20;;;0.80;;
29848;SDS011;16728;50.832;5.590;2022-09-27T13:33:52;2.63;;;1.23;;
29848;SDS011;16728;50.832;5.590;2022-09-27T13:36:54;2.53;;;1.50;;
29848;SDS011;16728;50.832;5.590;2022-09-27T13:46:17;4.25;;;1.50;;
29848;SDS011;16728;50.832;5.590;2022-09-27T13:52:39;3.22;;;1.30;;
29848;SDS011;16728;50.832;5.590;2022-09-27T13:55:46;1.85;;;1.05;;
29848;SDS011;16728;50.832;5.590;2022-09-27T13:58:49;1.08;;;0.90;;
29848;SDS011;16728;50.832;5.590;2022-09-27T14:02:02;3.35;;;1.20;;
29848;SDS011;16728;50.832;5.590;2022-09-27T14:05:37;2.90;;;1.05;;
29848;SDS011;16728;50.832;5.590;2022-09-27T14:09:41;3.03;;;1.00;;
29848;SDS011;16728;50.832;5.590;2022-09-27T14:12:46;4.88;;;0.85;;
29848;SDS011;16728;50.832;5.590;2022-09-27T14:15:49;5.03;;;1.47;;
29848;SDS011;16728;50.832;5.590;2022-09-27T14:19:05;2.22;;;0.95;;
29848;SDS011;16728;50.832;5.590;2022-09-27T14:22:38;3.78;;;1.20;;
29848;SDS011;16728;50.832;5.590;2022-09-27T14:25:53;4.55;;;1.23;;
29848;SDS011;16728;50.832;5.590;2022-09-27T14:28:56;4.25;;;1.67;;
29848;SDS011;16728;50.832;5.590;2022-09-27T14:35:57;8.95;;;3.90;;
29848;SDS011;16728;50.832;5.590;2022-09-27T14:42:51;6.75;;;1.20;;
29848;SDS011;16728;50.832;5.590;2022-09-27T14:49:28;5.38;;;1.40;;
29848;SDS011;16728;50.832;5.590;2022-09-27T14:52:31;4.13;;;1.37;;
29848;SDS011;16728;50.832;5.590;2022-09-27T14:55:47;7.15;;;1.10;;
29848;SDS011;16728;50.832;5.590;2022-09-27T15:02:20;5.70;;;1.50;;
29848;SDS011;16728;50.832;5.590;2022-09-27T15:05:27;4.70;;;1.23;;
29848;SDS011;16728;50.832;5.590;2022-09-27T15:08:33;3.28;;;1.10;;
29848;SDS011;16728;50.832;5.590;2022-09-27T15:11:56;4.22;;;1.20;;
29848;SDS011;16728;50.832;5.590;2022-09-27T15:15:10;6.40;;;1.48;;
29848;SDS011;16728;50.832;5.590;2022-09-27T15:21:49;5.03;;;1.90;;
29848;SDS011;16728;50.832;5.590;2022-09-27T15:24:51;4.00;;;1.30;;
29848;SDS011;16728;50.832;5.590;2022-09-27T15:27:54;2.55;;;1.27;;
29848;SDS011;16728;50.832;5.590;2022-09-27T15:30:57;4.57;;;1.55;;
29848;SDS011;16728;50.832;5.590;2022-09-27T15:34:02;7.85;;;2.08;;
29848;SDS011;16728;50.832;5.590;2022-09-27T15:37:24;6.55;;;2.30;;
29848;SDS011;16728;50.832;5.590;2022-09-27T15:43:50;4.70;;;1.80;;
29848;SDS011;16728;50.832;5.590;2022-09-27T15:46:53;5.38;;;1.63;;
29848;SDS011;16728;50.832;5.590;2022-09-27T16:10:50;9.35;;;3.53;;
29848;SDS011;16728;50.832;5.590;2022-09-27T16:18:55;3.88;;;1.63;;
29848;SDS011;16728;50.832;5.590;2022-09-27T16:26:03;2.38;;;1.20;;
29848;SDS011;16728;50.832;5.590;2022-09-27T16:29:37;5.28;;;1.13;;
29848;SDS011;16728;50.832;5.590;2022-09-27T16:52:58;6.10;;;2.00;;
29848;SDS011;16728;50.832;5.590;2022-09-27T16:56:03;7.05;;;2.80;;
29848;SDS011;16728;50.832;5.590;2022-09-27T16:59:05;6.20;;;3.13;;
29848;SDS011;16728;50.832;5.590;2022-09-27T17:02:20;5.03;;;2.75;;
29848;SDS011;16728;50.832;5.590;2022-09-27T17:05:44;5.70;;;2.25;;
29848;SDS011;16728;50.832;5.590;2022-09-27T17:08:46;4.00;;;2.28;;
29848;SDS011;16728;50.832;5.590;2022-09-27T17:11:47;8.77;;;3.15;;
29848;SDS011;16728;50.832;5.590;2022-09-27T17:15:08;7.18;;;2.53;;
29848;SDS011;16728;50.832;5.590;2022-09-27T17:18:10;6.05;;;2.15;;
29848;SDS011;16728;50.832;5.590;2022-09-27T17:21:21;4.18;;;2.03;;
29848;SDS011;16728;50.832;5.590;2022-09-27T17:24:23;6.35;;;1.70;;
29848;SDS011;16728;50.832;5.590;2022-09-27T17:27:26;2.88;;;1.75;;
29848;SDS011;16728;50.832;5.590;2022-09-27T17:30:29;2.85;;;1.90;;
29848;SDS011;16728;50.832;5.590;2022-09-27T17:33:42;6.07;;;3.40;;
29848;SDS011;16728;50.832;5.590;2022-09-27T17:39:56;11.70;;;7.38;;
29848;SDS011;16728;50.832;5.590;2022-09-27T17:50:44;6.88;;;2.80;;
29848;SDS011;16728;50.832;5.590;2022-09-27T17:53:46;8.75;;;3.35;;
29848;SDS011;16728;50.832;5.590;2022-09-27T17:56:49;11.18;;;3.40;;
29848;SDS011;16728;50.832;5.590;2022-09-27T17:59:54;6.40;;;3.47;;
29848;SDS011;16728;50.832;5.590;2022-09-27T18:09:33;7.88;;;3.00;;
29848;SDS011;16728;50.832;5.590;2022-09-27T18:15:39;6.78;;;3.95;;
29848;SDS011;16728;50.832;5.590;2022-09-27T18:18:42;8.95;;;4.05;;
29848;SDS011;16728;50.832;5.590;2022-09-27T18:21:53;6.30;;;2.92;;
29848;SDS011;16728;50.832;5.590;2022-09-27T18:24:55;6.50;;;2.45;;
29848;SDS011;16728;50.832;5.590;2022-09-27T18:27:57;5.50;;;2.38;;
29848;SDS011;16728;50.832;5.590;2022-09-27T18:31:38;5.55;;;2.35;;
29848;SDS011;16728;50.832;5.590;2022-09-27T18:34:48;6.55;;;3.05;;
29848;SDS011;16728;50.832;5.590;2022-09-27T18:37:50;7.30;;;3.03;;
29848;SDS011;16728;50.832;5.590;2022-09-27T18:40:52;9.82;;;3.13;;
29848;SDS011;16728;50.832;5.590;2022-09-27T18:43:58;7.22;;;2.97;;
29848;SDS011;16728;50.832;5.590;2022-09-27T18:47:02;10.48;;;2.58;;
29848;SDS011;16728;50.832;5.590;2022-09-27T18:50:20;3.50;;;1.90;;
29848;SDS011;16728;50.832;5.590;2022-09-27T18:53:22;7.13;;;2.17;;
29848;SDS011;16728;50.832;5.590;2022-09-27T18:56:49;8.95;;;1.98;;
29848;SDS011;16728;50.832;5.590;2022-09-27T19:00:02;6.32;;;1.70;;
29848;SDS011;16728;50.832;5.590;2022-09-27T19:03:05;4.32;;;1.83;;
29848;SDS011;16728;50.832;5.590;2022-09-27T19:06:26;6.10;;;1.77;;
29848;SDS011;16728;50.832;5.590;2022-09-27T19:09:28;10.43;;;2.50;;
29848;SDS011;16728;50.832;5.590;2022-09-27T19:12:32;5.95;;;2.40;;
29848;SDS011;16728;50.832;5.590;2022-09-27T19:15:35;6.15;;;1.55;;
29848;SDS011;16728;50.832;5.590;2022-09-27T19:18:38;4.50;;;1.92;;
29848;SDS011;16728;50.832;5.590;2022-09-27T19:21:40;3.93;;;1.43;;
29848;SDS011;16728;50.832;5.590;2022-09-27T19:24:48;3.28;;;1.67;;
29848;SDS011;16728;50.832;5.590;2022-09-27T19:27:51;2.22;;;1.10;;
29848;SDS011;16728;50.832;5.590;2022-09-27T19:31:08;2.50;;;1.30;;
29848;SDS011;16728;50.832;5.590;2022-09-27T19:37:50;3.28;;;1.35;;
29848;SDS011;16728;50.832;5.590;2022-09-27T19:40:52;5.28;;;1.35;;
29848;SDS011;16728;50.832;5.590;2022-09-27T19:50:02;1.60;;;0.73;;
29848;SDS011;16728;50.832;5.590;2022-09-27T19:53:20;2.63;;;0.80;;
29848;SDS011;16728;50.832;5.590;2022-09-27T19:56:31;3.17;;;0.80;;
29848;SDS011;16728;50.832;5.590;2022-09-27T19:59:34;0.88;;;0.80;;
29848;SDS011;16728;50.832;5.590;2022-09-27T20:02:59;2.53;;;1.08;;
29848;SDS011;16728;50.832;5.590;2022-09-27T20:09:11;1.88;;;1.00;;
29848;SDS011;16728;50.832;5.590;2022-09-27T20:12:21;1.98;;;0.80;;
29848;SDS011;16728;50.832;5.590;2022-09-27T20:15:23;1.08;;;0.80;;
29848;SDS011;16728;50.832;5.590;2022-09-27T20:18:38;3.83;;;1.10;;
29848;SDS011;16728;50.832;5.590;2022-09-27T20:21:57;3.92;;;0.85;;
29848;SDS011;16728;50.832;5.590;2022-09-27T20:25:04;2.78;;;0.70;;
29848;SDS011;16728;50.832;5.590;2022-09-27T20:31:42;1.45;;;0.60;;
29848;SDS011;16728;50.832;5.590;2022-09-27T20:38:27;2.60;;;1.10;;
29848;SDS011;16728;50.832;5.590;2022-09-27T20:41:30;1.45;;;1.10;;
29848;SDS011;16728;50.832;5.590;2022-09-27T20:44:33;1.38;;;0.90;;
29848;SDS011;16728;50.832;5.590;2022-09-27T20:47:35;2.25;;;1.60;;
29848;SDS011;16728;50.832;5.590;2022-09-27T20:50:39;1.42;;;1.13;;
29848;SDS011;16728;50.832;5.590;2022-09-27T20:53:53;1.52;;;1.10;;
29848;SDS011;16728;50.832;5.590;2022-09-27T20:56:55;1.20;;;1.10;;
29848;SDS011;16728;50.832;5.590;2022-09-27T20:59:57;3.50;;;2.10;;
29848;SDS011;16728;50.832;5.590;2022-09-27T21:02:59;1.95;;;1.60;;
29848;SDS011;16728;50.832;5.590;2022-09-27T21:06:01;2.50;;;1.10;;
29848;SDS011;16728;50.832;5.590;2022-09-27T21:09:05;2.15;;;1.20;;
29848;SDS011;16728;50.832;5.590;2022-09-27T21:12:07;1.77;;;1.10;;
29848;SDS011;16728;50.832;5.590;2022-09-27T21:15:09;4.25;;;1.10;;
29848;SDS011;16728;50.832;5.590;2022-09-27T21:18:11;0.80;;;0.75;;
29848;SDS011;16728;50.832;5.590;2022-09-27T21:21:17;1.40;;;1.17;;
29848;SDS011;16728;50.832;5.590;2022-09-27T21:24:20;1.67;;;1.02;;
29848;SDS011;16728;50.832;5.590;2022-09-27T21:27:23;1.10;;;0.75;;
29848;SDS011;16728;50.832;5.590;2022-09-27T21:30:25;1.48;;;0.90;;
29848;SDS011;16728;50.832;5.590;2022-09-27T21:33:28;1.25;;;0.93;;
29848;SDS011;16728;50.832;5.590;2022-09-27T21:36:31;1.23;;;1.05;;
29848;SDS011;16728;50.832;5.590;2022-09-27T21:39:49;3.38;;;1.42;;
29848;SDS011;16728;50.832;5.590;2022-09-27T21:42:56;2.05;;;1.15;;
29848;SDS011;16728;50.832;5.590;2022-09-27T21:46:03;2.95;;;1.25;;
29848;SDS011;16728;50.832;5.590;2022-09-27T21:49:06;1.17;;;0.95;;
29848;SDS011;16728;50.832;5.590;2022-09-27T21:52:08;1.30;;;0.90;;
29848;SDS011;16728;50.832;5.590;2022-09-27T21:55:13;1.48;;;1.13;;
29848;SDS011;16728;50.832;5.590;2022-09-27T21:58:24;9.55;;;1.60;;
29848;SDS011;16728;50.832;5.590;2022-09-27T22:01:27;2.50;;;1.30;;
29848;SDS011;16728;50.832;5.590;2022-09-27T22:04:30;2.30;;;1.33;;
29848;SDS011;16728;50.832;5.590;2022-09-27T22:07:32;2.13;;;1.25;;
29848;SDS011;16728;50.832;5.590;2022-09-27T22:10:33;2.75;;;1.63;;
29848;SDS011;16728;50.832;5.590;2022-09-27T22:13:35;1.92;;;1.00;;
29848;SDS011;16728;50.832;5.590;2022-09-27T22:16:37;1.90;;;1.20;;
29848;SDS011;16728;50.832;5.590;2022-09-27T22:19:39;1.23;;;1.00;;
29848;SDS011;16728;50.832;5.590;2022-09-27T22:22:41;1.50;;;0.93;;
29848;SDS011;16728;50.832;5.590;2022-09-27T22:25:43;2.33;;;1.30;;
29848;SDS011;16728;50.832;5.590;2022-09-27T22:28:45;1.70;;;1.25;;
29848;SDS011;16728;50.832;5.590;2022-09-27T22:31:47;1.20;;;1.00;;
29848;SDS011;16728;50.832;5.590;2022-09-27T22:34:52;1.15;;;0.80;;
29848;SDS011;16728;50.832;5.590;2022-09-27T22:37:57;2.50;;;1.00;;
29848;SDS011;16728;50.832;5.590;2022-09-27T22:41:18;1.23;;;1.10;;
29848;SDS011;16728;50.832;5.590;2022-09-27T22:44:20;4.10;;;1.00;;
29848;SDS011;16728;50.832;5.590;2022-09-27T22:47:22;1.42;;;0.90;;
29848;SDS011;16728;50.832;5.590;2022-09-27T22:50:24;1.13;;;0.73;;
29848;SDS011;16728;50.832;5.590;2022-09-27T22:53:27;4.60;;;1.35;;
29848;SDS011;16728;50.832;5.590;2022-09-27T22:56:39;2.83;;;0.90;;
29848;SDS011;16728;50.832;5.590;2022-09-27T22:59:41;2.45;;;1.00;;
29848;SDS011;16728;50.832;5.590;2022-09-27T23:02:42;1.20;;;1.00;;
29848;SDS011;16728;50.832;5.590;2022-09-27T23:05:45;2.83;;;1.00;;
29848;SDS011;16728;50.832;5.590;2022-09-27T23:08:46;1.70;;;0.90;;
29848;SDS011;16728;50.832;5.590;2022-09-27T23:11:48;3.85;;;1.00;;
29848;SDS011;16728;50.832;5.590;2022-09-27T23:14:59;2.10;;;0.85;;
29848;SDS011;16728;50.832;5.590;2022-09-27T23:18:01;2.40;;;1.05;;
29848;SDS011;16728;50.832;5.590;2022-09-27T23:21:34;1.85;;;0.80;;
29848;SDS011;16728;50.832;5.590;2022-09-27T23:24:36;2.80;;;0.90;;
29848;SDS011;16728;50.832;5.590;2022-09-27T23:27:37;3.88;;;1.10;;
29848;SDS011;16728;50.832;5.590;2022-09-27T23:30:42;1.05;;;0.75;;
29848;SDS011;16728;50.832;5.590;2022-09-27T23:33:44;4.97;;;1.77;;